createdAt,value
2023-04-26T00:01:29.988Z,101142.88
2023-04-26T00:03:57.553Z,101151.19
2023-04-26T00:06:24.148Z,101149.44
2023-04-26T00:08:51.102Z,101151.72
2023-04-26T00:11:17.641Z,101149.06
2023-04-26T00:13:44.036Z,101150.91
2023-04-26T00:16:10.575Z,101149.72
2023-04-26T00:18:37.304Z,101145.19
2023-04-26T00:21:03.926Z,101154.50
2023-04-26T00:23:30.770Z,101146.44
2023-04-26T00:25:57.373Z,101142.34
2023-04-26T00:28:23.775Z,101141.47
2023-04-26T00:30:51.181Z,101145.19
2023-04-26T00:33:17.797Z,101140.66
2023-04-26T00:35:44.392Z,101151.38
2023-04-26T00:38:10.841Z,101149.97
2023-04-26T00:40:37.462Z,101155.38
2023-04-26T00:43:04.019Z,101153.50
2023-04-26T00:45:31.274Z,101140.50
2023-04-26T00:48:02.514Z,101139.91
2023-04-26T00:50:31.130Z,101135.16
2023-04-26T00:52:58.259Z,101146.13
2023-04-26T00:55:27.150Z,101155.81
2023-04-26T00:57:53.813Z,101145.91
2023-04-26T01:00:20.481Z,101152.94
2023-04-26T01:02:47.563Z,101151.47
2023-04-26T01:05:14.580Z,101149.44
2023-04-26T01:07:41.216Z,101158.72
2023-04-26T01:10:09.962Z,101158.72
2023-04-26T01:12:38.284Z,101153.56
2023-04-26T01:15:05.790Z,101165.31
2023-04-26T01:17:32.419Z,101158.53
2023-04-26T01:19:59.010Z,101159.75
2023-04-26T01:22:28.469Z,101159.13
2023-04-26T01:24:56.368Z,101167.38
2023-04-26T01:27:22.763Z,101162.63
2023-04-26T01:29:50.237Z,101165.31
2023-04-26T01:32:16.803Z,101162.84
2023-04-26T01:34:43.274Z,101166.16
2023-04-26T01:37:11.390Z,101164.09
2023-04-26T01:39:37.809Z,101163.69
2023-04-26T01:42:05.054Z,101164.50
2023-04-26T01:44:32.102Z,101175.44
2023-04-26T01:47:01.182Z,101167.59
2023-04-26T01:49:27.781Z,101173.38
2023-04-26T01:51:55.064Z,101170.47
2023-04-26T01:54:23.506Z,101176.25
2023-04-26T01:56:50.019Z,101163.03
2023-04-26T01:59:16.441Z,101160.81
2023-04-26T02:01:46.158Z,101167.38
2023-04-26T02:04:12.832Z,101162.63
2023-04-26T02:06:39.209Z,101162.63
2023-04-26T02:09:05.892Z,101161.00
2023-04-26T02:11:32.445Z,101162.63
2023-04-26T02:13:59.030Z,101166.97
2023-04-26T02:16:25.539Z,101165.72
2023-04-26T02:18:53.521Z,101172.94
2023-04-26T02:21:21.542Z,101165.72
2023-04-26T02:23:48.299Z,101169.88
2023-04-26T02:26:14.752Z,101166.38
2023-04-26T02:28:43.285Z,101166.97
2023-04-26T02:31:10.078Z,101162.03
2023-04-26T02:33:36.665Z,101162.81
2023-04-26T02:36:06.964Z,101164.69
2023-04-26T02:38:37.002Z,101172.13
2023-04-26T02:41:05.299Z,101166.75
2023-04-26T02:43:32.930Z,101171.50
2023-04-26T02:46:01.111Z,101178.69
2023-04-26T02:48:27.617Z,101175.19
2023-04-26T02:50:54.077Z,101178.91
2023-04-26T02:53:20.866Z,101176.00
2023-04-26T02:55:47.528Z,101170.84
2023-04-26T02:58:14.072Z,101172.50
2023-04-26T03:00:46.329Z,101163.00
2023-04-26T03:03:13.610Z,101171.25
2023-04-26T03:05:41.493Z,101165.28
2023-04-26T03:08:07.974Z,101160.13
2023-04-26T03:10:34.532Z,101165.91
2023-04-26T03:13:01.094Z,101166.13
2023-04-26T03:15:27.574Z,101169.41
2023-04-26T03:17:54.209Z,101163.84
2023-04-26T03:20:21.807Z,101171.03
2023-04-26T03:22:48.573Z,101167.75
2023-04-26T03:25:16.191Z,101172.06
2023-04-26T03:27:43.128Z,101175.13
2023-04-26T03:30:10.490Z,101173.44
2023-04-26T03:32:38.907Z,101170.34
2023-04-26T03:35:05.868Z,101164.00
2023-04-26T03:37:32.809Z,101173.06
2023-04-26T03:40:04.432Z,101170.56
2023-04-26T03:42:32.133Z,101169.59
2023-04-26T03:44:59.177Z,101167.91
2023-04-26T03:47:25.804Z,101167.06
2023-04-26T03:49:52.365Z,101169.75
2023-04-26T03:52:19.748Z,101164.41
2023-04-26T03:54:46.715Z,101164.38
2023-04-26T03:57:13.371Z,101163.81
2023-04-26T03:59:40.739Z,101161.72
2023-04-26T04:02:07.167Z,101172.66
2023-04-26T04:04:34.192Z,101166.50
2023-04-26T04:07:00.903Z,101172.50
2023-04-26T04:09:27.518Z,101170.00
2023-04-26T04:11:54.502Z,101170.66
2023-04-26T04:14:21.055Z,101162.19
2023-04-26T04:16:47.556Z,101169.81
2023-04-26T04:19:14.165Z,101163.44
2023-04-26T04:21:43.558Z,101172.31
2023-04-26T04:24:09.993Z,101175.19
2023-04-26T04:26:36.879Z,101170.84
2023-04-26T04:29:08.981Z,101167.34
2023-04-26T04:31:37.288Z,101176.22
2023-04-26T04:34:04.141Z,101181.34
2023-04-26T04:36:31.249Z,101181.34
2023-04-26T04:38:58.170Z,101188.41
2023-04-26T04:41:24.983Z,101183.84
2023-04-26T04:43:51.474Z,101186.94
2023-04-26T04:46:17.994Z,101194.78
2023-04-26T04:48:44.840Z,101196.22
2023-04-26T04:51:11.918Z,101196.22
2023-04-26T04:53:38.665Z,101192.50
2023-04-26T04:56:05.945Z,101191.69
2023-04-26T04:58:32.455Z,101195.44
2023-04-26T05:01:02.220Z,101198.34
2023-04-26T05:03:30.828Z,101201.00
2023-04-26T05:05:57.594Z,101203.69
2023-04-26T05:08:24.852Z,101205.13
2023-04-26T05:10:51.949Z,101195.19
2023-04-26T05:13:18.378Z,101199.53
2023-04-26T05:15:44.790Z,101204.09
2023-04-26T05:18:11.389Z,101196.06
2023-04-26T05:20:38.929Z,101200.38
2023-04-26T05:23:06.654Z,101199.78
2023-04-26T05:25:37.099Z,101204.72
2023-04-26T05:28:16.869Z,101209.47
2023-04-26T05:31:11.389Z,101214.44
2023-04-26T05:34:00.829Z,101212.38
2023-04-26T05:36:35.599Z,101207.81
2023-04-26T05:39:02.626Z,101214.84
2023-04-26T05:41:29.229Z,101213.19
2023-04-26T05:43:55.797Z,101221.63
2023-04-26T05:46:22.822Z,101217.53
2023-04-26T05:48:49.700Z,101221.22
2023-04-26T05:51:16.335Z,101219.34
2023-04-26T05:53:43.045Z,101221.78
2023-04-26T05:56:09.670Z,101220.94
2023-04-26T05:58:37.016Z,101220.47
2023-04-26T06:01:04.335Z,101219.44
2023-04-26T06:03:31.065Z,101228.09
2023-04-26T06:05:59.261Z,101234.47
2023-04-26T06:08:28.499Z,101233.19
2023-04-26T06:10:55.580Z,101228.78
2023-04-26T06:13:22.050Z,101225.25
2023-04-26T06:15:48.674Z,101226.06
2023-04-26T06:18:15.667Z,101225.88
2023-04-26T06:20:42.135Z,101225.59
2023-04-26T06:23:08.590Z,101227.13
2023-04-26T06:25:37.053Z,101228.31
2023-04-26T06:28:04.149Z,101235.09
2023-04-26T06:30:31.266Z,101242.00
2023-04-26T06:33:00.186Z,101236.91
2023-04-26T06:35:29.308Z,101235.31
2023-04-26T06:37:55.942Z,101239.22
2023-04-26T06:40:22.945Z,101240.06
2023-04-26T06:42:49.721Z,101247.19
2023-04-26T06:45:16.980Z,101237.28
2023-04-26T06:47:44.823Z,101240.59
2023-04-26T06:50:12.880Z,101250.69
2023-04-26T06:52:39.359Z,101246.47
2023-04-26T06:55:07.009Z,101245.31
2023-04-26T06:57:33.461Z,101253.63
2023-04-26T07:00:00.029Z,101246.84
2023-04-26T07:02:27.696Z,101249.31
2023-04-26T07:04:54.529Z,101246.13
2023-04-26T07:07:21.890Z,101240.38
2023-04-26T07:09:48.567Z,101242.50
2023-04-26T07:12:15.106Z,101246.22
2023-04-26T07:14:43.159Z,101252.06
2023-04-26T07:17:10.606Z,101253.19
2023-04-26T07:19:37.152Z,101257.88
2023-04-26T07:22:04.584Z,101250.94
2023-04-26T07:24:31.023Z,101261.28
2023-04-26T07:26:57.872Z,101251.97
2023-04-26T07:29:24.320Z,101257.34
2023-04-26T07:31:50.862Z,101262.69
2023-04-26T07:34:17.309Z,101254.44
2023-04-26T07:36:43.756Z,101256.47
2023-04-26T07:39:11.623Z,101259.41
2023-04-26T07:41:38.166Z,101257.09
2023-04-26T07:44:04.757Z,101251.75
2023-04-26T07:46:33.311Z,101251.75
2023-04-26T07:48:59.949Z,101261.16
2023-04-26T07:51:27.462Z,101256.13
2023-04-26T07:53:55.713Z,101252.34
2023-04-26T07:56:24.072Z,101254.47
2023-04-26T07:58:50.830Z,101254.47
2023-04-26T08:01:17.212Z,101247.03
2023-04-26T08:03:43.997Z,101258.19
2023-04-26T08:06:10.822Z,101260.66
2023-04-26T08:08:45.591Z,101252.53
2023-04-26T08:11:12.040Z,101253.13
2023-04-26T08:13:38.581Z,101259.25
2023-04-26T08:16:06.310Z,101256.38
2023-04-26T08:18:33.521Z,101258.19
2023-04-26T08:21:00.251Z,101247.75
2023-04-26T08:23:28.386Z,101253.75
2023-04-26T08:25:54.802Z,101258.63
2023-04-26T08:28:21.556Z,101269.31
2023-04-26T08:30:48.161Z,101259.69
2023-04-26T08:33:14.748Z,101262.09
2023-04-26T08:35:41.157Z,101254.88
2023-04-26T08:38:07.563Z,101277.28
2023-04-26T08:40:34.975Z,101260.63
2023-04-26T08:43:02.148Z,101265.72
2023-04-26T08:45:29.066Z,101262.94
2023-04-26T08:48:09.053Z,101263.53
2023-04-26T08:50:38.685Z,101262.56
2023-04-26T08:53:05.971Z,101257.47
2023-04-26T08:55:33.590Z,101263.97
2023-04-26T08:58:02.244Z,101257.69
2023-04-26T09:00:29.299Z,101261.31
2023-04-26T09:02:55.977Z,101261.97
2023-04-26T09:05:24.549Z,101261.19
2023-04-26T09:07:56.381Z,101267.38
2023-04-26T09:10:23.423Z,101266.97
2023-04-26T09:12:53.631Z,101260.81
2023-04-26T09:15:26.527Z,101269.19
2023-04-26T09:17:53.663Z,101263.03
2023-04-26T09:20:23.172Z,101267.13
2023-04-26T09:22:54.631Z,101268.13
2023-04-26T09:25:29.995Z,101261.78
2023-04-26T09:27:58.010Z,101267.63
2023-04-26T09:30:24.926Z,101264.31
2023-04-26T09:32:58.049Z,101267.88
2023-04-26T09:35:34.641Z,101276.09
2023-04-26T09:38:10.489Z,101269.63
2023-04-26T09:40:51.048Z,101283.47
2023-04-26T09:43:19.388Z,101273.97
2023-04-26T09:45:49.497Z,101276.19
2023-04-26T09:48:30.137Z,101272.94
2023-04-26T09:51:03.070Z,101277.38
2023-04-26T09:53:37.029Z,101274.94
2023-04-26T09:56:12.190Z,101272.13
2023-04-26T09:58:58.109Z,101277.50
2023-04-26T10:01:26.860Z,101281.75
2023-04-26T10:03:57.970Z,101283.72
2023-04-26T10:06:25.104Z,101280.66
2023-04-26T10:08:51.941Z,101287.66
2023-04-26T10:11:18.820Z,101279.47
2023-04-26T10:13:45.578Z,101275.09
2023-04-26T10:16:12.042Z,101277.25
2023-04-26T10:18:38.508Z,101278.53
2023-04-26T10:21:12.145Z,101264.75
2023-04-26T10:23:39.614Z,101274.44
2023-04-26T10:26:06.002Z,101271.91
2023-04-26T10:28:44.607Z,101271.19
2023-04-26T10:31:11.696Z,101269.63
2023-04-26T10:33:38.398Z,101270.91
2023-04-26T10:36:08.179Z,101270.94
2023-04-26T10:38:40.015Z,101269.34
2023-04-26T10:41:30.843Z,101268.56
2023-04-26T10:43:59.929Z,101266.97
2023-04-26T10:46:35.725Z,101267.44
2023-04-26T10:49:19.853Z,101263.19
2023-04-26T10:52:12.406Z,101255.16
2023-04-26T10:54:52.659Z,101254.00
2023-04-26T10:57:19.694Z,101244.47
2023-04-26T11:00:13.649Z,101251.66
2023-04-26T11:02:46.972Z,101247.28
2023-04-26T11:05:44.511Z,101246.28
2023-04-26T11:08:13.837Z,101246.34
2023-04-26T11:10:40.967Z,101236.63
2023-04-26T11:13:07.852Z,101238.81
2023-04-26T11:15:35.232Z,101238.44
2023-04-26T11:18:05.402Z,101242.63
2023-04-26T11:20:32.814Z,101241.34
2023-04-26T11:23:00.221Z,101242.09
2023-04-26T11:25:29.136Z,101235.28
2023-04-26T11:28:00.977Z,101242.84
2023-04-26T11:30:32.108Z,101244.91
2023-04-26T11:32:59.814Z,101230.53
2023-04-26T11:35:27.790Z,101231.53
2023-04-26T11:37:54.377Z,101237.81
2023-04-26T11:40:21.689Z,101237.44
2023-04-26T11:42:48.139Z,101232.47
2023-04-26T11:45:17.655Z,101235.13
2023-04-26T11:47:45.873Z,101234.47
2023-04-26T11:50:12.955Z,101231.00
2023-04-26T11:52:39.568Z,101241.03
2023-04-26T11:55:07.198Z,101247.44
2023-04-26T11:57:34.459Z,101235.69
2023-04-26T12:00:14.875Z,101243.19
2023-04-26T12:02:48.895Z,101227.69
2023-04-26T12:05:32.332Z,101241.88
2023-04-26T12:08:00.322Z,101245.25
2023-04-26T12:10:32.409Z,101246.66
2023-04-26T12:12:59.949Z,101251.19
2023-04-26T12:15:31.458Z,101250.97
2023-04-26T12:18:05.484Z,101248.28
2023-04-26T12:20:35.655Z,101249.09
2023-04-26T12:23:16.559Z,101253.31
2023-04-26T12:25:53.456Z,101249.47
2023-04-26T12:28:19.877Z,101246.94
2023-04-26T12:30:46.378Z,101245.97
2023-04-26T12:33:17.621Z,101244.78
2023-04-26T12:35:44.598Z,101241.06
2023-04-26T12:38:12.232Z,101248.59
2023-04-26T12:40:39.138Z,101247.16
2023-04-26T12:43:05.591Z,101244.25
2023-04-26T12:45:32.212Z,101248.13
2023-04-26T12:47:58.794Z,101257.53
2023-04-26T12:50:25.739Z,101260.44
2023-04-26T12:52:52.250Z,101254.72
2023-04-26T12:55:19.809Z,101256.44
2023-04-26T12:57:46.344Z,101256.81
2023-04-26T13:00:16.914Z,101259.69
2023-04-26T13:02:43.960Z,101259.28
2023-04-26T13:05:10.553Z,101257.72
2023-04-26T13:07:39.330Z,101267.09
2023-04-26T13:10:07.394Z,101262.53
2023-04-26T13:12:34.511Z,101259.19
2023-04-26T13:15:01.141Z,101255.22
2023-04-26T13:17:28.338Z,101255.81
2023-04-26T13:19:54.843Z,101250.09
2023-04-26T13:22:21.501Z,101250.97
2023-04-26T13:24:48.226Z,101247.78
2023-04-26T13:27:14.902Z,101256.94
2023-04-26T13:29:41.952Z,101253.06
2023-04-26T13:32:08.590Z,101254.88
2023-04-26T13:34:35.065Z,101257.53
2023-04-26T13:37:03.815Z,101257.97
2023-04-26T13:39:31.023Z,101259.03
2023-04-26T13:41:59.349Z,101263.75
2023-04-26T13:44:26.908Z,101270.50
2023-04-26T13:46:55.420Z,101267.50
2023-04-26T13:49:22.993Z,101268.72
2023-04-26T13:51:49.622Z,101261.91
2023-04-26T13:54:17.270Z,101263.38
2023-04-26T13:56:43.811Z,101252.88
2023-04-26T13:59:10.226Z,101258.44
2023-04-26T14:01:36.838Z,101260.06
2023-04-26T14:04:04.859Z,101261.88
2023-04-26T14:06:32.854Z,101262.56
2023-04-26T14:08:59.538Z,101263.03
2023-04-26T14:11:26.349Z,101267.13
2023-04-26T14:13:56.152Z,101265.97
2023-04-26T14:16:26.760Z,101266.13
2023-04-26T14:18:53.313Z,101270.53
2023-04-26T14:21:19.820Z,101270.13
2023-04-26T14:23:46.251Z,101269.75
2023-04-26T14:26:13.314Z,101275.34
2023-04-26T14:28:41.022Z,101277.47
2023-04-26T14:31:07.861Z,101273.53
2023-04-26T14:33:35.172Z,101276.97
2023-04-26T14:36:02.293Z,101277.75
2023-04-26T14:38:28.783Z,101281.28
2023-04-26T14:40:55.247Z,101288.13
2023-04-26T14:43:21.848Z,101280.72
2023-04-26T14:45:48.335Z,101278.56
2023-04-26T14:48:15.251Z,101283.34
2023-04-26T14:50:41.846Z,101287.06
2023-04-26T14:53:08.523Z,101281.78
2023-04-26T14:55:34.899Z,101281.47
2023-04-26T14:58:02.378Z,101282.41
2023-04-26T15:00:30.584Z,101280.47
2023-04-26T15:02:57.224Z,101283.19
2023-04-26T15:05:24.260Z,101281.09
2023-04-26T15:07:51.983Z,101283.25
2023-04-26T15:10:18.477Z,101277.09
2023-04-26T15:12:44.978Z,101277.81
2023-04-26T15:15:11.702Z,101275.47
2023-04-26T15:17:38.201Z,101280.81
2023-04-26T15:20:06.328Z,101278.53
2023-04-26T15:22:35.254Z,101281.25
2023-04-26T15:25:03.531Z,101281.19
2023-04-26T15:27:29.930Z,101280.16
2023-04-26T15:29:56.930Z,101274.81
2023-04-26T15:32:23.405Z,101286.25
2023-04-26T15:34:50.301Z,101292.44
2023-04-26T15:37:17.129Z,101287.53
2023-04-26T15:39:43.707Z,101287.78
2023-04-26T15:42:11.070Z,101285.06
2023-04-26T15:44:37.460Z,101290.56
2023-04-26T15:47:03.986Z,101291.69
2023-04-26T15:49:30.897Z,101295.13
2023-04-26T15:51:57.420Z,101302.19
2023-04-26T15:54:24.209Z,101305.53
2023-04-26T15:56:50.655Z,101304.41
2023-04-26T15:59:17.068Z,101310.16
2023-04-26T16:01:43.595Z,101311.06
2023-04-26T16:04:10.742Z,101305.16
2023-04-26T16:06:37.395Z,101312.03
2023-04-26T16:09:17.180Z,101301.47
2023-04-26T16:11:51.243Z,101302.53
2023-04-26T16:14:17.770Z,101295.38
2023-04-26T16:16:45.850Z,101307.44
2023-04-26T16:19:12.582Z,101295.44
2023-04-26T16:21:40.170Z,101299.41
2023-04-26T16:24:08.923Z,101296.09
2023-04-26T16:26:35.617Z,101291.59
2023-04-26T16:29:04.079Z,101290.69
2023-04-26T16:31:31.926Z,101291.75
2023-04-26T16:33:58.911Z,101296.84
2023-04-26T16:36:27.225Z,101289.69
2023-04-26T16:38:54.314Z,101293.53
2023-04-26T16:41:20.987Z,101295.75
2023-04-26T16:43:47.756Z,101292.47
2023-04-26T16:46:14.259Z,101291.25
2023-04-26T16:48:40.788Z,101290.09
2023-04-26T16:51:07.971Z,101286.91
2023-04-26T16:53:35.985Z,101294.28
2023-04-26T16:56:02.827Z,101286.91
2023-04-26T16:58:29.518Z,101286.09
2023-04-26T17:00:56.296Z,101286.38
2023-04-26T17:03:24.353Z,101290.47
2023-04-26T17:05:51.436Z,101291.06
2023-04-26T17:08:18.796Z,101296.69
2023-04-26T17:10:46.875Z,101289.50
2023-04-26T17:13:13.787Z,101297.06
2023-04-26T17:15:41.355Z,101295.97
2023-04-26T17:18:08.367Z,101300.00
2023-04-26T17:20:35.448Z,101297.41
2023-04-26T17:23:04.114Z,101296.97
2023-04-26T17:25:30.914Z,101301.78
2023-04-26T17:27:57.619Z,101302.97
2023-04-26T17:30:24.110Z,101309.09
2023-04-26T17:32:50.838Z,101298.59
2023-04-26T17:35:17.543Z,101303.28
2023-04-26T17:37:49.455Z,101310.94
2023-04-26T17:40:17.344Z,101302.88
2023-04-26T17:42:43.783Z,101307.19
2023-04-26T17:45:13.393Z,101301.50
2023-04-26T17:47:41.231Z,101305.56
2023-04-26T17:50:08.090Z,101312.44
2023-04-26T17:52:34.790Z,101307.97
2023-04-26T17:55:02.428Z,101312.47
2023-04-26T17:57:28.909Z,101310.38
2023-04-26T17:59:55.420Z,101319.06
2023-04-26T18:02:21.897Z,101313.78
2023-04-26T18:04:48.551Z,101322.50
2023-04-26T18:07:15.393Z,101327.94
2023-04-26T18:09:41.859Z,101319.72
2023-04-26T18:12:08.921Z,101328.06
2023-04-26T18:14:35.389Z,101323.25
2023-04-26T18:17:02.472Z,101330.06
2023-04-26T18:19:29.002Z,101323.59
2023-04-26T18:21:55.502Z,101332.19
2023-04-26T18:24:21.869Z,101326.19
2023-04-26T18:26:48.315Z,101323.50
2023-04-26T18:29:14.938Z,101330.78
2023-04-26T18:31:41.438Z,101330.19
2023-04-26T18:34:10.267Z,101332.31
2023-04-26T18:36:37.009Z,101337.03
2023-04-26T18:39:04.557Z,101334.34
2023-04-26T18:41:31.052Z,101337.84
2023-04-26T18:43:57.913Z,101339.28
2023-04-26T18:46:24.358Z,101345.25
2023-04-26T18:48:51.235Z,101349.00
2023-04-26T18:51:17.699Z,101347.50
2023-04-26T18:53:44.629Z,101346.31
2023-04-26T18:56:11.149Z,101346.66
2023-04-26T18:58:37.587Z,101346.41
2023-04-26T19:01:04.057Z,101345.50
2023-04-26T19:03:30.914Z,101361.13
2023-04-26T19:05:57.504Z,101349.59
2023-04-26T19:08:25.261Z,101353.97
2023-04-26T19:10:51.851Z,101360.53
2023-04-26T19:13:18.620Z,101363.13
2023-04-26T19:15:45.563Z,101362.66
2023-04-26T19:18:12.016Z,101358.34
2023-04-26T19:20:38.630Z,101362.09
2023-04-26T19:23:06.057Z,101367.72
2023-04-26T19:25:34.994Z,101373.00
2023-04-26T19:28:02.609Z,101371.34
2023-04-26T19:30:29.085Z,101374.19
2023-04-26T19:32:55.623Z,101374.19
2023-04-26T19:35:22.089Z,101373.81
2023-04-26T19:37:48.926Z,101371.13
2023-04-26T19:40:15.409Z,101375.94
2023-04-26T19:42:41.877Z,101368.31
2023-04-26T19:45:08.423Z,101370.66
2023-04-26T19:47:35.020Z,101373.59
2023-04-26T19:50:04.055Z,101378.41
2023-04-26T19:52:30.694Z,101374.03
2023-04-26T19:54:57.262Z,101377.59
2023-04-26T19:57:23.734Z,101382.16
2023-04-26T19:59:50.233Z,101383.47
2023-04-26T20:02:16.794Z,101382.25
2023-04-26T20:04:43.548Z,101375.69
2023-04-26T20:07:11.125Z,101375.22
2023-04-26T20:09:37.531Z,101384.47
2023-04-26T20:12:04.293Z,101380.00
2023-04-26T20:14:30.951Z,101383.78
2023-04-26T20:17:02.066Z,101378.13
2023-04-26T20:19:29.318Z,101381.66
2023-04-26T20:21:56.480Z,101388.94
2023-04-26T20:24:24.316Z,101393.38
2023-04-26T20:26:51.157Z,101394.44
2023-04-26T20:29:17.634Z,101389.63
2023-04-26T20:31:44.122Z,101387.75
2023-04-26T20:34:10.527Z,101386.94
2023-04-26T20:36:36.952Z,101391.78
2023-04-26T20:39:03.344Z,101385.28
2023-04-26T20:41:29.988Z,101387.19
2023-04-26T20:43:56.419Z,101386.00
2023-04-26T20:46:22.931Z,101390.00
2023-04-26T20:48:49.897Z,101391.88
2023-04-26T20:51:16.500Z,101396.06
2023-04-26T20:53:43.648Z,101385.75
2023-04-26T20:56:10.346Z,101391.41
2023-04-26T20:58:36.878Z,101391.03
2023-04-26T21:03:32.836Z,101390.66
2023-04-26T21:06:00.405Z,101391.72
2023-04-26T21:08:27.579Z,101389.94
2023-04-26T21:10:53.980Z,101387.22
2023-04-26T21:13:20.398Z,101396.06
2023-04-26T21:15:47.354Z,101393.00
2023-04-26T21:18:13.838Z,101399.66
2023-04-26T21:20:40.316Z,101393.91
2023-04-26T21:23:06.844Z,101400.28
2023-04-26T21:25:33.272Z,101405.47
2023-04-26T21:27:59.976Z,101405.47
2023-04-26T21:30:27.573Z,101403.22
2023-04-26T21:32:54.021Z,101405.28
2023-04-26T21:35:20.464Z,101404.13
2023-04-26T21:37:46.958Z,101408.56
2023-04-26T21:40:13.577Z,101402.94
2023-04-26T21:42:40.661Z,101409.88
2023-04-26T21:45:07.978Z,101398.41
2023-04-26T21:47:34.529Z,101405.22
2023-04-26T21:50:01.149Z,101402.16
2023-04-26T21:52:27.726Z,101411.84
2023-04-26T21:54:54.132Z,101412.75
2023-04-26T21:57:23.906Z,101414.78
2023-04-26T21:59:51.020Z,101403.97
2023-04-26T22:02:17.612Z,101405.88
2023-04-26T22:04:44.035Z,101407.94
2023-04-26T22:07:10.408Z,101406.00
2023-04-26T22:09:36.964Z,101402.78
2023-04-26T22:12:03.703Z,101398.31
2023-04-26T22:14:32.858Z,101402.72
2023-04-26T22:16:59.296Z,101405.63
2023-04-26T22:19:26.365Z,101407.50
2023-04-26T22:21:55.622Z,101414.13
2023-04-26T22:24:22.702Z,101406.25
2023-04-26T22:26:49.346Z,101410.81
2023-04-26T22:29:16.205Z,101415.59
2023-04-26T22:31:42.660Z,101413.72
2023-04-26T22:34:09.091Z,101412.25
2023-04-26T22:36:35.604Z,101414.94
2023-04-26T22:39:02.843Z,101417.03
2023-04-26T22:41:29.228Z,101412.91
2023-04-26T22:43:55.634Z,101422.06
2023-04-26T22:46:22.067Z,101412.69
2023-04-26T22:48:49.382Z,101423.72
2023-04-26T22:51:15.961Z,101425.22
2023-04-26T22:53:42.373Z,101415.91
2023-04-26T22:56:08.868Z,101429.63
2023-04-26T22:58:35.321Z,101430.63
2023-04-26T23:01:02.723Z,101423.56
2023-04-26T23:03:29.328Z,101421.31
2023-04-26T23:05:55.967Z,101425.28
2023-04-26T23:08:22.407Z,101422.59
2023-04-26T23:10:49.147Z,101430.25
2023-04-26T23:13:16.073Z,101432.09
2023-04-26T23:15:42.450Z,101434.66
2023-04-26T23:18:09.490Z,101439.22
2023-04-26T23:20:36.057Z,101441.25
2023-04-26T23:23:02.836Z,101438.56
2023-04-26T23:25:29.241Z,101438.63
2023-04-26T23:27:55.725Z,101439.22
2023-04-26T23:30:22.246Z,101440.13
2023-04-26T23:32:49.042Z,101443.25
2023-04-26T23:35:15.513Z,101458.84
2023-04-26T23:37:41.932Z,101452.78
2023-04-26T23:40:10.213Z,101456.66
2023-04-26T23:42:36.827Z,101452.13
2023-04-26T23:45:04.429Z,101454.53
2023-04-26T23:47:31.982Z,101458.34
2023-04-26T23:49:58.828Z,101452.13
2023-04-26T23:52:25.399Z,101454.81
2023-04-26T23:54:51.811Z,101456.44
2023-04-26T23:57:18.249Z,101453.16
2023-04-26T23:59:44.691Z,101454.19
